sensor_id;sensor_type;location;lat;lon;timestamp;P1;durP1;ratioP1;P2;durP2;ratioP2
12812;SDS011;6471;50.932;6.934;2023-02-28T00:01:23;4.33;;;2.50;;
12812;SDS011;6471;50.932;6.934;2023-02-28T00:03:49;4.20;;;2.43;;
12812;SDS011;6471;50.932;6.934;2023-02-28T00:06:15;3.07;;;2.30;;
12812;SDS011;6471;50.932;6.934;2023-02-28T00:08:45;3.37;;;2.40;;
12812;SDS011;6471;50.932;6.934;2023-02-28T00:11:13;4.43;;;2.53;;
12812;SDS011;6471;50.932;6.934;2023-02-28T00:13:40;3.47;;;2.30;;
12812;SDS011;6471;50.932;6.934;2023-02-28T00:16:10;3.60;;;2.23;;
12812;SDS011;6471;50.932;6.934;2023-02-28T00:18:38;2.93;;;2.30;;
12812;SDS011;6471;50.932;6.934;2023-02-28T00:21:04;3.23;;;2.30;;
12812;SDS011;6471;50.932;6.934;2023-02-28T00:23:31;3.70;;;2.57;;
12812;SDS011;6471;50.932;6.934;2023-02-28T00:25:57;3.40;;;2.37;;
12812;SDS011;6471;50.932;6.934;2023-02-28T00:28:27;3.67;;;2.40;;
12812;SDS011;6471;50.932;6.934;2023-02-28T00:30:53;3.77;;;2.53;;
12812;SDS011;6471;50.932;6.934;2023-02-28T00:33:19;3.20;;;2.20;;
12812;SDS011;6471;50.932;6.934;2023-02-28T00:35:45;4.70;;;2.30;;
12812;SDS011;6471;50.932;6.934;2023-02-28T00:38:12;4.57;;;2.67;;
12812;SDS011;6471;50.932;6.934;2023-02-28T00:40:38;4.07;;;2.43;;
12812;SDS011;6471;50.932;6.934;2023-02-28T00:43:04;3.93;;;2.50;;
12812;SDS011;6471;50.932;6.934;2023-02-28T00:45:30;4.57;;;2.40;;
12812;SDS011;6471;50.932;6.934;2023-02-28T00:47:57;3.93;;;2.30;;
12812;SDS011;6471;50.932;6.934;2023-02-28T00:50:23;3.47;;;1.90;;
12812;SDS011;6471;50.932;6.934;2023-02-28T00:52:49;3.37;;;2.20;;
12812;SDS011;6471;50.932;6.934;2023-02-28T00:55:15;3.27;;;2.07;;
12812;SDS011;6471;50.932;6.934;2023-02-28T00:57:43;4.47;;;2.43;;
12812;SDS011;6471;50.932;6.934;2023-02-28T01:00:09;2.67;;;2.30;;
12812;SDS011;6471;50.932;6.934;2023-02-28T01:02:36;6.07;;;2.37;;
12812;SDS011;6471;50.932;6.934;2023-02-28T01:05:02;3.03;;;2.20;;
12812;SDS011;6471;50.932;6.934;2023-02-28T01:07:29;2.93;;;2.27;;
12812;SDS011;6471;50.932;6.934;2023-02-28T01:09:57;4.60;;;2.37;;
12812;SDS011;6471;50.932;6.934;2023-02-28T01:12:24;3.93;;;2.23;;
12812;SDS011;6471;50.932;6.934;2023-02-28T01:14:50;4.83;;;2.47;;
12812;SDS011;6471;50.932;6.934;2023-02-28T01:17:16;4.00;;;2.40;;
12812;SDS011;6471;50.932;6.934;2023-02-28T01:19:45;3.53;;;2.30;;
12812;SDS011;6471;50.932;6.934;2023-02-28T01:22:11;3.13;;;2.23;;
12812;SDS011;6471;50.932;6.934;2023-02-28T01:24:37;3.30;;;2.40;;
12812;SDS011;6471;50.932;6.934;2023-02-28T01:27:03;3.70;;;2.20;;
12812;SDS011;6471;50.932;6.934;2023-02-28T01:29:30;3.53;;;2.57;;
12812;SDS011;6471;50.932;6.934;2023-02-28T01:31:56;3.57;;;2.17;;
12812;SDS011;6471;50.932;6.934;2023-02-28T01:34:24;3.83;;;2.40;;
12812;SDS011;6471;50.932;6.934;2023-02-28T01:36:50;3.40;;;2.30;;
12812;SDS011;6471;50.932;6.934;2023-02-28T01:39:16;4.00;;;2.20;;
12812;SDS011;6471;50.932;6.934;2023-02-28T01:41:42;4.37;;;2.33;;
12812;SDS011;6471;50.932;6.934;2023-02-28T01:46:54;2.67;;;2.23;;
12812;SDS011;6471;50.932;6.934;2023-02-28T01:49:20;4.13;;;2.33;;
12812;SDS011;6471;50.932;6.934;2023-02-28T01:51:47;4.17;;;2.50;;
12812;SDS011;6471;50.932;6.934;2023-02-28T01:54:26;3.13;;;2.20;;
12812;SDS011;6471;50.932;6.934;2023-02-28T01:56:54;3.47;;;2.03;;
12812;SDS011;6471;50.932;6.934;2023-02-28T01:59:23;2.70;;;2.10;;
12812;SDS011;6471;50.932;6.934;2023-02-28T02:01:50;4.13;;;2.20;;
12812;SDS011;6471;50.932;6.934;2023-02-28T02:04:17;5.17;;;2.30;;
12812;SDS011;6471;50.932;6.934;2023-02-28T02:06:44;3.47;;;2.17;;
12812;SDS011;6471;50.932;6.934;2023-02-28T02:09:12;3.77;;;2.27;;
12812;SDS011;6471;50.932;6.934;2023-02-28T02:11:39;3.37;;;2.40;;
12812;SDS011;6471;50.932;6.934;2023-02-28T02:24:33;3.40;;;2.00;;
12812;SDS011;6471;50.932;6.934;2023-02-28T02:40:15;3.93;;;2.27;;
12812;SDS011;6471;50.932;6.934;2023-02-28T02:47:41;4.57;;;2.63;;
12812;SDS011;6471;50.932;6.934;2023-02-28T02:50:11;3.80;;;2.33;;
12812;SDS011;6471;50.932;6.934;2023-02-28T02:52:40;4.30;;;2.20;;
12812;SDS011;6471;50.932;6.934;2023-02-28T02:55:09;5.33;;;2.40;;
12812;SDS011;6471;50.932;6.934;2023-02-28T02:57:38;2.40;;;2.20;;
12812;SDS011;6471;50.932;6.934;2023-02-28T03:00:06;5.17;;;2.43;;
12812;SDS011;6471;50.932;6.934;2023-02-28T03:02:34;3.40;;;2.10;;
12812;SDS011;6471;50.932;6.934;2023-02-28T03:05:02;4.57;;;2.33;;
12812;SDS011;6471;50.932;6.934;2023-02-28T03:07:29;2.90;;;2.00;;
12812;SDS011;6471;50.932;6.934;2023-02-28T03:09:56;2.57;;;1.93;;
12812;SDS011;6471;50.932;6.934;2023-02-28T03:12:31;7.00;;;2.30;;
12812;SDS011;6471;50.932;6.934;2023-02-28T03:25:22;3.80;;;2.07;;
12812;SDS011;6471;50.932;6.934;2023-02-28T03:28:04;2.97;;;2.13;;
12812;SDS011;6471;50.932;6.934;2023-02-28T03:30:35;2.87;;;1.90;;
12812;SDS011;6471;50.932;6.934;2023-02-28T03:35:40;2.67;;;2.10;;
12812;SDS011;6471;50.932;6.934;2023-02-28T03:38:18;3.23;;;2.20;;
12812;SDS011;6471;50.932;6.934;2023-02-28T03:40:47;2.37;;;1.90;;
12812;SDS011;6471;50.932;6.934;2023-02-28T03:43:17;2.60;;;2.20;;
12812;SDS011;6471;50.932;6.934;2023-02-28T03:45:44;2.97;;;2.23;;
12812;SDS011;6471;50.932;6.934;2023-02-28T03:50:44;3.33;;;2.10;;
12812;SDS011;6471;50.932;6.934;2023-02-28T03:53:16;2.83;;;1.77;;
12812;SDS011;6471;50.932;6.934;2023-02-28T03:55:45;2.47;;;2.13;;
12812;SDS011;6471;50.932;6.934;2023-02-28T04:00:55;2.63;;;1.90;;
12812;SDS011;6471;50.932;6.934;2023-02-28T04:03:23;2.70;;;2.13;;
12812;SDS011;6471;50.932;6.934;2023-02-28T04:05:50;2.30;;;1.93;;
12812;SDS011;6471;50.932;6.934;2023-02-28T04:08:17;2.53;;;1.80;;
12812;SDS011;6471;50.932;6.934;2023-02-28T04:10:43;2.50;;;2.00;;
12812;SDS011;6471;50.932;6.934;2023-02-28T04:13:22;2.93;;;2.10;;
12812;SDS011;6471;50.932;6.934;2023-02-28T04:15:48;2.70;;;2.43;;
12812;SDS011;6471;50.932;6.934;2023-02-28T04:18:15;3.00;;;2.30;;
12812;SDS011;6471;50.932;6.934;2023-02-28T04:20:41;3.90;;;2.57;;
12812;SDS011;6471;50.932;6.934;2023-02-28T04:23:07;3.07;;;2.10;;
12812;SDS011;6471;50.932;6.934;2023-02-28T04:25:33;3.50;;;2.20;;
12812;SDS011;6471;50.932;6.934;2023-02-28T04:27:59;3.17;;;2.30;;
12812;SDS011;6471;50.932;6.934;2023-02-28T04:30:25;3.60;;;2.13;;
12812;SDS011;6471;50.932;6.934;2023-02-28T04:32:51;4.37;;;2.50;;
12812;SDS011;6471;50.932;6.934;2023-02-28T04:35:17;3.80;;;2.67;;
12812;SDS011;6471;50.932;6.934;2023-02-28T04:37:43;3.00;;;2.60;;
12812;SDS011;6471;50.932;6.934;2023-02-28T04:40:09;2.73;;;2.33;;
12812;SDS011;6471;50.932;6.934;2023-02-28T04:42:36;4.40;;;2.50;;
12812;SDS011;6471;50.932;6.934;2023-02-28T04:45:02;5.47;;;3.03;;
12812;SDS011;6471;50.932;6.934;2023-02-28T04:47:29;3.23;;;2.30;;
12812;SDS011;6471;50.932;6.934;2023-02-28T04:49:55;4.03;;;2.40;;
12812;SDS011;6471;50.932;6.934;2023-02-28T04:52:21;3.67;;;2.40;;
12812;SDS011;6471;50.932;6.934;2023-02-28T04:54:47;4.67;;;2.80;;
12812;SDS011;6471;50.932;6.934;2023-02-28T04:57:14;5.47;;;2.53;;
12812;SDS011;6471;50.932;6.934;2023-02-28T04:59:40;3.40;;;2.40;;
12812;SDS011;6471;50.932;6.934;2023-02-28T05:02:06;3.63;;;2.60;;
12812;SDS011;6471;50.932;6.934;2023-02-28T05:04:33;3.07;;;2.33;;
12812;SDS011;6471;50.932;6.934;2023-02-28T05:07:00;3.63;;;2.50;;
12812;SDS011;6471;50.932;6.934;2023-02-28T05:09:28;3.10;;;2.40;;
12812;SDS011;6471;50.932;6.934;2023-02-28T05:11:54;4.80;;;2.67;;
12812;SDS011;6471;50.932;6.934;2023-02-28T05:14:23;2.67;;;2.23;;
12812;SDS011;6471;50.932;6.934;2023-02-28T05:16:49;5.50;;;2.60;;
12812;SDS011;6471;50.932;6.934;2023-02-28T05:58:11;2.23;;;2.03;;
12812;SDS011;6471;50.932;6.934;2023-02-28T06:00:38;3.37;;;2.43;;
12812;SDS011;6471;50.932;6.934;2023-02-28T06:03:05;2.87;;;2.40;;
12812;SDS011;6471;50.932;6.934;2023-02-28T06:05:31;3.93;;;2.63;;
12812;SDS011;6471;50.932;6.934;2023-02-28T06:07:58;5.00;;;2.67;;
12812;SDS011;6471;50.932;6.934;2023-02-28T06:10:34;4.03;;;2.37;;
12812;SDS011;6471;50.932;6.934;2023-02-28T06:13:00;3.50;;;2.73;;
12812;SDS011;6471;50.932;6.934;2023-02-28T06:15:32;3.63;;;2.60;;
12812;SDS011;6471;50.932;6.934;2023-02-28T06:17:58;3.97;;;2.80;;
12812;SDS011;6471;50.932;6.934;2023-02-28T10:11:33;3.53;;;1.93;;
12812;SDS011;6471;50.932;6.934;2023-02-28T12:39:02;4.13;;;2.80;;
12812;SDS011;6471;50.932;6.934;2023-02-28T12:47:24;4.50;;;2.80;;
12812;SDS011;6471;50.932;6.934;2023-02-28T12:55:50;3.10;;;2.43;;
12812;SDS011;6471;50.932;6.934;2023-02-28T12:58:20;3.13;;;2.50;;
12812;SDS011;6471;50.932;6.934;2023-02-28T14:05:00;4.47;;;2.70;;
12812;SDS011;6471;50.932;6.934;2023-02-28T14:07:30;3.43;;;2.97;;
12812;SDS011;6471;50.932;6.934;2023-02-28T14:15:59;5.13;;;3.03;;
12812;SDS011;6471;50.932;6.934;2023-02-28T14:18:36;3.27;;;2.70;;
12812;SDS011;6471;50.932;6.934;2023-02-28T14:23:39;3.67;;;2.80;;
12812;SDS011;6471;50.932;6.934;2023-02-28T14:26:31;4.13;;;2.90;;
12812;SDS011;6471;50.932;6.934;2023-02-28T14:31:52;3.80;;;2.90;;
12812;SDS011;6471;50.932;6.934;2023-02-28T14:37:10;4.20;;;3.43;;
12812;SDS011;6471;50.932;6.934;2023-02-28T14:39:40;4.80;;;3.43;;
12812;SDS011;6471;50.932;6.934;2023-02-28T14:42:25;4.87;;;3.50;;
12812;SDS011;6471;50.932;6.934;2023-02-28T14:44:54;3.57;;;2.70;;
12812;SDS011;6471;50.932;6.934;2023-02-28T14:47:21;4.07;;;2.70;;
12812;SDS011;6471;50.932;6.934;2023-02-28T14:49:49;4.77;;;3.40;;
12812;SDS011;6471;50.932;6.934;2023-02-28T14:52:26;5.03;;;3.10;;
12812;SDS011;6471;50.932;6.934;2023-02-28T14:54:55;4.83;;;3.60;;
12812;SDS011;6471;50.932;6.934;2023-02-28T14:57:29;4.90;;;3.50;;
12812;SDS011;6471;50.932;6.934;2023-02-28T14:59:57;6.07;;;3.10;;
12812;SDS011;6471;50.932;6.934;2023-02-28T15:02:24;4.00;;;3.13;;
12812;SDS011;6471;50.932;6.934;2023-02-28T15:04:55;4.23;;;3.10;;
12812;SDS011;6471;50.932;6.934;2023-02-28T15:07:21;3.33;;;3.00;;
12812;SDS011;6471;50.932;6.934;2023-02-28T15:10:10;4.77;;;3.20;;
12812;SDS011;6471;50.932;6.934;2023-02-28T15:12:37;4.40;;;3.13;;
12812;SDS011;6471;50.932;6.934;2023-02-28T15:15:13;3.63;;;2.97;;
12812;SDS011;6471;50.932;6.934;2023-02-28T15:17:45;3.53;;;2.80;;
12812;SDS011;6471;50.932;6.934;2023-02-28T15:20:12;3.37;;;2.93;;
12812;SDS011;6471;50.932;6.934;2023-02-28T15:22:43;3.70;;;3.00;;
12812;SDS011;6471;50.932;6.934;2023-02-28T15:25:11;3.87;;;2.80;;
12812;SDS011;6471;50.932;6.934;2023-02-28T15:27:42;6.27;;;3.20;;
12812;SDS011;6471;50.932;6.934;2023-02-28T15:30:14;5.43;;;3.17;;
12812;SDS011;6471;50.932;6.934;2023-02-28T15:32:41;3.90;;;3.10;;
12812;SDS011;6471;50.932;6.934;2023-02-28T15:35:18;4.23;;;2.80;;
12812;SDS011;6471;50.932;6.934;2023-02-28T15:37:57;4.60;;;3.30;;
12812;SDS011;6471;50.932;6.934;2023-02-28T15:40:28;4.00;;;2.77;;
12812;SDS011;6471;50.932;6.934;2023-02-28T15:43:04;4.30;;;3.23;;
12812;SDS011;6471;50.932;6.934;2023-02-28T15:53:39;4.83;;;2.80;;
12812;SDS011;6471;50.932;6.934;2023-02-28T15:56:13;5.07;;;3.20;;
12812;SDS011;6471;50.932;6.934;2023-02-28T15:58:45;3.53;;;2.60;;
12812;SDS011;6471;50.932;6.934;2023-02-28T16:01:44;3.50;;;2.70;;
12812;SDS011;6471;50.932;6.934;2023-02-28T16:04:16;3.50;;;2.67;;
12812;SDS011;6471;50.932;6.934;2023-02-28T16:06:43;4.87;;;3.07;;
12812;SDS011;6471;50.932;6.934;2023-02-28T16:09:18;3.73;;;2.70;;
12812;SDS011;6471;50.932;6.934;2023-02-28T16:11:45;3.60;;;2.80;;
12812;SDS011;6471;50.932;6.934;2023-02-28T16:14:12;3.93;;;2.87;;
12812;SDS011;6471;50.932;6.934;2023-02-28T16:16:41;3.70;;;2.77;;
12812;SDS011;6471;50.932;6.934;2023-02-28T16:19:08;4.33;;;2.90;;
12812;SDS011;6471;50.932;6.934;2023-02-28T16:21:34;4.37;;;3.20;;
12812;SDS011;6471;50.932;6.934;2023-02-28T16:24:00;4.43;;;2.97;;
12812;SDS011;6471;50.932;6.934;2023-02-28T16:26:26;4.47;;;3.17;;
12812;SDS011;6471;50.932;6.934;2023-02-28T16:28:53;4.03;;;3.00;;
12812;SDS011;6471;50.932;6.934;2023-02-28T16:31:20;4.57;;;3.03;;
12812;SDS011;6471;50.932;6.934;2023-02-28T16:33:46;4.87;;;2.90;;
12812;SDS011;6471;50.932;6.934;2023-02-28T16:36:13;4.13;;;3.00;;
12812;SDS011;6471;50.932;6.934;2023-02-28T16:38:40;5.83;;;3.00;;
12812;SDS011;6471;50.932;6.934;2023-02-28T16:41:06;3.60;;;3.20;;
12812;SDS011;6471;50.932;6.934;2023-02-28T16:43:32;3.53;;;2.80;;
12812;SDS011;6471;50.932;6.934;2023-02-28T16:45:58;4.00;;;3.00;;
12812;SDS011;6471;50.932;6.934;2023-02-28T16:48:26;4.17;;;2.90;;
12812;SDS011;6471;50.932;6.934;2023-02-28T16:50:52;4.17;;;2.93;;
12812;SDS011;6471;50.932;6.934;2023-02-28T16:53:18;4.23;;;3.10;;
12812;SDS011;6471;50.932;6.934;2023-02-28T16:55:44;4.37;;;2.80;;
12812;SDS011;6471;50.932;6.934;2023-02-28T16:58:14;4.47;;;3.10;;
12812;SDS011;6471;50.932;6.934;2023-02-28T17:00:41;4.40;;;3.03;;
12812;SDS011;6471;50.932;6.934;2023-02-28T17:03:10;4.97;;;2.90;;
12812;SDS011;6471;50.932;6.934;2023-02-28T17:05:39;3.63;;;2.67;;
12812;SDS011;6471;50.932;6.934;2023-02-28T17:08:05;4.97;;;3.07;;
12812;SDS011;6471;50.932;6.934;2023-02-28T17:10:31;3.77;;;2.90;;
12812;SDS011;6471;50.932;6.934;2023-02-28T17:12:57;4.80;;;2.90;;
12812;SDS011;6471;50.932;6.934;2023-02-28T17:15:23;3.83;;;2.83;;
12812;SDS011;6471;50.932;6.934;2023-02-28T17:17:49;4.50;;;3.00;;
12812;SDS011;6471;50.932;6.934;2023-02-28T17:20:17;4.13;;;2.93;;
12812;SDS011;6471;50.932;6.934;2023-02-28T17:22:43;3.80;;;3.00;;
12812;SDS011;6471;50.932;6.934;2023-02-28T17:25:10;3.83;;;3.07;;
12812;SDS011;6471;50.932;6.934;2023-02-28T17:27:36;3.73;;;2.63;;
12812;SDS011;6471;50.932;6.934;2023-02-28T17:30:08;3.80;;;2.97;;
12812;SDS011;6471;50.932;6.934;2023-02-28T17:32:35;5.20;;;3.20;;
12812;SDS011;6471;50.932;6.934;2023-02-28T17:35:01;5.37;;;3.57;;
12812;SDS011;6471;50.932;6.934;2023-02-28T17:37:27;5.30;;;3.70;;
12812;SDS011;6471;50.932;6.934;2023-02-28T17:39:53;5.80;;;3.40;;
12812;SDS011;6471;50.932;6.934;2023-02-28T17:42:20;4.73;;;3.20;;
12812;SDS011;6471;50.932;6.934;2023-02-28T17:44:46;3.90;;;3.13;;
12812;SDS011;6471;50.932;6.934;2023-02-28T17:47:12;4.57;;;2.80;;
12812;SDS011;6471;50.932;6.934;2023-02-28T17:49:38;4.23;;;2.90;;
12812;SDS011;6471;50.932;6.934;2023-02-28T17:52:04;4.53;;;3.17;;
12812;SDS011;6471;50.932;6.934;2023-02-28T17:54:30;5.03;;;3.03;;
12812;SDS011;6471;50.932;6.934;2023-02-28T17:57:02;5.17;;;3.47;;
12812;SDS011;6471;50.932;6.934;2023-02-28T17:59:45;4.33;;;3.13;;
12812;SDS011;6471;50.932;6.934;2023-02-28T18:02:11;5.13;;;3.20;;
12812;SDS011;6471;50.932;6.934;2023-02-28T18:04:40;4.57;;;3.27;;
12812;SDS011;6471;50.932;6.934;2023-02-28T18:07:06;4.47;;;3.10;;
12812;SDS011;6471;50.932;6.934;2023-02-28T18:09:34;5.23;;;3.50;;
12812;SDS011;6471;50.932;6.934;2023-02-28T18:12:00;5.83;;;3.70;;
12812;SDS011;6471;50.932;6.934;2023-02-28T18:14:27;5.53;;;3.83;;
12812;SDS011;6471;50.932;6.934;2023-02-28T18:16:53;6.40;;;4.37;;
12812;SDS011;6471;50.932;6.934;2023-02-28T18:19:20;6.83;;;4.77;;
12812;SDS011;6471;50.932;6.934;2023-02-28T18:21:48;6.63;;;4.50;;
12812;SDS011;6471;50.932;6.934;2023-02-28T18:24:32;5.80;;;4.27;;
12812;SDS011;6471;50.932;6.934;2023-02-28T18:26:58;6.47;;;4.10;;
12812;SDS011;6471;50.932;6.934;2023-02-28T18:29:25;8.00;;;3.93;;
12812;SDS011;6471;50.932;6.934;2023-02-28T18:31:52;5.77;;;3.70;;
12812;SDS011;6471;50.932;6.934;2023-02-28T18:34:19;5.47;;;3.97;;
12812;SDS011;6471;50.932;6.934;2023-02-28T18:36:45;5.33;;;4.13;;
12812;SDS011;6471;50.932;6.934;2023-02-28T18:39:12;7.07;;;4.00;;
12812;SDS011;6471;50.932;6.934;2023-02-28T18:41:38;6.67;;;4.20;;
12812;SDS011;6471;50.932;6.934;2023-02-28T18:44:05;6.87;;;4.43;;
12812;SDS011;6471;50.932;6.934;2023-02-28T18:46:31;6.13;;;4.37;;
12812;SDS011;6471;50.932;6.934;2023-02-28T18:49:15;6.53;;;4.23;;
12812;SDS011;6471;50.932;6.934;2023-02-28T18:51:41;5.57;;;4.00;;
12812;SDS011;6471;50.932;6.934;2023-02-28T18:54:11;6.37;;;4.20;;
12812;SDS011;6471;50.932;6.934;2023-02-28T18:56:37;10.47;;;4.30;;
12812;SDS011;6471;50.932;6.934;2023-02-28T18:59:03;6.17;;;3.90;;
12812;SDS011;6471;50.932;6.934;2023-02-28T19:01:30;5.40;;;4.00;;
12812;SDS011;6471;50.932;6.934;2023-02-28T19:03:58;6.07;;;4.47;;
12812;SDS011;6471;50.932;6.934;2023-02-28T19:06:25;6.13;;;4.20;;
12812;SDS011;6471;50.932;6.934;2023-02-28T19:08:54;5.13;;;4.00;;
12812;SDS011;6471;50.932;6.934;2023-02-28T19:11:21;7.93;;;4.57;;
12812;SDS011;6471;50.932;6.934;2023-02-28T19:13:47;6.27;;;4.27;;
12812;SDS011;6471;50.932;6.934;2023-02-28T19:16:14;6.50;;;4.57;;
12812;SDS011;6471;50.932;6.934;2023-02-28T19:18:40;5.47;;;4.37;;
12812;SDS011;6471;50.932;6.934;2023-02-28T19:21:07;6.17;;;4.30;;
12812;SDS011;6471;50.932;6.934;2023-02-28T19:23:34;7.73;;;4.30;;
12812;SDS011;6471;50.932;6.934;2023-02-28T19:26:04;6.70;;;4.40;;
12812;SDS011;6471;50.932;6.934;2023-02-28T19:28:30;7.37;;;4.30;;
12812;SDS011;6471;50.932;6.934;2023-02-28T19:30:56;7.97;;;4.73;;
12812;SDS011;6471;50.932;6.934;2023-02-28T19:33:22;6.83;;;4.63;;
12812;SDS011;6471;50.932;6.934;2023-02-28T19:35:48;6.30;;;4.60;;
12812;SDS011;6471;50.932;6.934;2023-02-28T19:38:15;7.37;;;5.03;;
12812;SDS011;6471;50.932;6.934;2023-02-28T19:40:41;6.37;;;4.80;;
12812;SDS011;6471;50.932;6.934;2023-02-28T19:43:07;6.90;;;4.43;;
12812;SDS011;6471;50.932;6.934;2023-02-28T19:45:34;6.57;;;4.90;;
12812;SDS011;6471;50.932;6.934;2023-02-28T19:48:00;6.80;;;4.77;;
12812;SDS011;6471;50.932;6.934;2023-02-28T19:50:26;7.53;;;4.90;;
12812;SDS011;6471;50.932;6.934;2023-02-28T19:52:52;8.20;;;4.80;;
12812;SDS011;6471;50.932;6.934;2023-02-28T19:55:18;6.00;;;4.40;;
12812;SDS011;6471;50.932;6.934;2023-02-28T19:57:44;6.83;;;4.63;;
12812;SDS011;6471;50.932;6.934;2023-02-28T20:00:11;6.90;;;4.93;;
12812;SDS011;6471;50.932;6.934;2023-02-28T20:02:38;7.43;;;4.90;;
12812;SDS011;6471;50.932;6.934;2023-02-28T22:45:06;9.63;;;5.43;;
12812;SDS011;6471;50.932;6.934;2023-02-28T22:47:33;6.77;;;4.80;;
12812;SDS011;6471;50.932;6.934;2023-02-28T22:50:01;8.07;;;4.93;;
